Time;durP1;ratioP1;P1;durP2;ratioP2;P2;SDS_P1;SDS_P2;PMS_P1;PMS_P2;Temp;Humidity;BMP_temperature;BMP_pressure;BME280_temperature;BME280_humidity;BME280_pressure;Samples;Min_cycle;Max_cycle;Signal;HPM_P1;HPM_P2
2022/11/24 00:00:08;;;;;;;;;;;;;;;8.42;100.00;98552.81;328540;29;1635;-77
2022/11/24 00:00:18;;;;;;;;;;;;;;;8.42;100.00;98550.22;326659;30;2315;-76
2022/11/24 00:00:28;;;;;;;;;;;;;;;8.43;100.00;98551.91;325811;30;1205;-75
2022/11/24 00:00:38;;;;;;;;;;;;;;;8.44;100.00;98553.59;323070;30;2471;-77
2022/11/24 00:00:49;;;;;;;;;;;;;;;8.44;100.00;98558.81;319229;30;3061;-76
2022/11/24 00:01:06;;;;;;;;;;;;;;;8.44;100.00;98554.44;316539;31;1232;-76
2022/11/24 00:01:21;;;;;;;;;;;;;;;8.43;100.00;98552.75;318920;31;797;-76
2022/11/24 00:01:31;;;;;;;;;;;;;;;8.43;100.00;98557.13;320049;30;793;-76
2022/11/24 00:01:42;;;;;;;;;;;;;;;8.44;100.00;98558.81;318259;30;2654;-75
2022/11/24 00:01:52;;;;;;;;;;;;;;;8.43;100.00;98557.13;316232;31;1628;-75
2022/11/24 00:02:02;;;;;;;;;;;;;;;8.43;100.00;98557.13;314003;31;1662;-75
2022/11/24 00:02:13;;;;;;;;;;;;;;;8.42;100.00;98560.63;314257;31;1480;-76
2022/11/24 00:02:23;;;;;;;;;;;;;;;8.42;100.00;98560.63;313754;31;2292;-75
2022/11/24 00:02:33;;;;;;;;;;;;;;;8.40;100.00;98552.91;310054;31;3024;-75
2022/11/24 00:02:43;;;;;;;;;;;;;;;8.42;100.00;98558.03;309773;31;1218;-75
2022/11/24 00:02:53;;;;;;;;;;;;;;;8.42;100.00;98558.03;305772;32;3590;-75
2022/11/24 00:03:04;;;;;;;;;;;;;;;8.42;100.00;98561.50;303260;32;4129;-75
2022/11/24 00:03:14;;;;;;;;;;;;;;;8.42;100.00;98560.63;301691;32;841;-75
2022/11/24 00:03:24;;;;;;;;;;;;;;;8.42;100.00;98560.63;301907;32;4216;-75
2022/11/24 00:03:35;;;;;;;;;;;;;;;8.43;100.00;98562.34;303331;32;4004;-76
2022/11/24 00:03:46;;;;;;;;;;;;;;;8.40;100.00;98558.09;304511;32;951;-76
2022/11/24 00:03:57;;;;;;;;;;;;;;;8.41;100.00;98564.16;299787;32;3761;-76
2022/11/24 00:04:09;;;;;;;;;;;;;;;8.42;100.00;98565.84;300412;32;2086;-75
2022/11/24 00:04:19;;;;;;;;;;;;;;;8.43;100.00;98563.19;302006;32;2291;-75
2022/11/24 00:04:30;;;;;;;;;;;;;;;8.42;100.00;98560.63;300507;32;1262;-76
2022/11/24 00:04:40;;;;;;;;;;;;;;;8.41;100.00;98561.56;297933;32;3552;-75
2022/11/24 00:04:50;;;;;;;;;;;;;;;8.40;100.00;98565.09;294492;33;4550;-76
2022/11/24 00:05:00;;;;;;;;;;;;;;;8.40;100.00;98567.69;294118;33;1919;-76
2022/11/24 00:05:10;;;;;;;;;;;;;;;8.40;100.00;98567.69;292057;33;5060;-76
2022/11/24 00:05:21;;;;;;;;;;;;;;;8.39;100.00;98566.84;287979;33;6151;-75
2022/11/24 00:05:37;;;;;;;;;;;;;;;8.39;100.00;98566.84;286620;34;1343;-75
2022/11/24 00:05:47;;;;;;;;;;;;;;;8.37;100.00;98571.28;283875;34;1367;-76
2022/11/24 00:06:04;;;;;;;;;;;;;;;8.39;100.00;98573.81;282008;35;1344;-76
2022/11/24 00:06:14;;;;;;;;;;;;;;;8.36;100.00;98568.75;276920;35;3650;-76
2022/11/24 00:06:25;;;;;;;;;;;;;;;8.37;100.00;98567.84;277104;35;3593;-76
2022/11/24 00:06:35;;;;;;;;;;;;;;;8.36;100.00;98569.59;276583;35;5194;-76
2022/11/24 00:06:45;;;;;;;;;;;;;;;8.34;100.00;98567.06;276500;35;1403;-76
2022/11/24 00:06:55;;;;;;;;;;;;;;;8.34;100.00;98564.47;275481;35;5952;-77
2022/11/24 00:07:06;;;;;;;;;;;;;;;8.34;100.00;98569.69;272690;35;7002;-77
2022/11/24 00:07:16;;;;;;;;;;;;;;;8.34;100.00;98566.22;274483;36;915;-75
2022/11/24 00:08:54;;;;;;;;;;;;;;;8.32;100.00;98571.50;2491951;27;20361;-76
2022/11/24 00:09:04;;;;;;;;;;;;;;;8.30;100.00;98575.94;353699;27;1156;-76
2022/11/24 00:09:14;;;;;;;;;;;;;;;8.29;100.00;98576.84;350483;28;1302;-76
2022/11/24 00:09:25;;;;;;;;;;;;;;;8.28;100.00;98572.53;349204;28;1289;-76
2022/11/24 00:09:35;;;;;;;;;;;;;;;8.29;100.00;98571.63;350508;28;1304;-76
2022/11/24 00:09:45;;;;;;;;;;;;;;;8.28;100.00;98569.94;351990;28;1214;-76
2022/11/24 00:09:55;;;;;;;;;;;;;;;8.29;100.00;98576.84;350747;28;1247;-76
2022/11/24 00:10:06;;;;;;;;;;;;;;;8.30;100.00;98575.94;349735;28;1030;-76
2022/11/24 00:10:16;;;;;;;;;;;;;;;8.30;100.00;98577.69;349428;28;1200;-76
2022/11/24 00:10:26;;;;;;;;;;;;;;;8.28;100.00;98575.16;347734;28;1206;-76
2022/11/24 00:10:36;;;;;;;;;;;;;;;8.29;100.00;98576.84;349140;28;1415;-76
2022/11/24 00:10:47;;;;;;;;;;;;;;;8.27;100.00;98573.47;349815;28;804;-76
2022/11/24 00:11:01;;;;;;;;;;;;;;;8.27;100.00;98576.06;350580;28;1312;-76
2022/11/24 00:11:12;;;;;;;;;;;;;;;8.23;100.00;98571.91;349065;28;1260;-76
2022/11/24 00:11:30;;;;;;;;;;;;;;;8.21;100.00;98573.78;350587;28;1469;-76
2022/11/24 00:11:40;;;;;;;;;;;;;;;8.20;100.00;98576.47;352127;28;910;-76
2022/11/24 00:11:50;;;;;;;;;;;;;;;8.21;100.00;98570.34;349195;28;1305;-76
2022/11/24 00:12:00;;;;;;;;;;;;;;;8.20;100.00;98573.88;351311;28;1542;-76
2022/11/24 00:12:11;;;;;;;;;;;;;;;8.20;100.00;98572.09;350607;28;887;-76
2022/11/24 00:12:21;;;;;;;;;;;;;;;8.21;100.00;98573.78;351780;28;1210;-76
2022/11/24 00:12:31;;;;;;;;;;;;;;;8.20;100.00;98569.50;349330;28;1430;-76
2022/11/24 00:12:41;;;;;;;;;;;;;;;8.20;100.00;98571.25;347407;28;1227;-76
2022/11/24 00:12:52;;;;;;;;;;;;;;;8.20;100.00;98572.09;346457;28;1485;-76
2022/11/24 00:13:02;;;;;;;;;;;;;;;8.19;100.00;98570.41;346794;28;1342;-76
2022/11/24 00:13:12;;;;;;;;;;;;;;;8.20;100.00;98577.31;346844;28;1196;-77
2022/11/24 00:13:22;;;;;;;;;;;;;;;8.20;100.00;98572.09;346439;28;1234;-77
2022/11/24 00:13:33;;;;;;;;;;;;;;;8.21;100.00;98567.72;349017;28;1446;-77
2022/11/24 00:13:43;;;;;;;;;;;;;;;8.21;100.00;98565.97;346738;28;1420;-77
2022/11/24 00:13:53;;;;;;;;;;;;;;;8.21;100.00;98568.56;342354;28;1196;-77
2022/11/24 00:14:04;;;;;;;;;;;;;;;8.21;100.00;98568.56;345188;28;840;-77
2022/11/24 00:14:14;;;;;;;;;;;;;;;8.21;100.00;98571.19;347909;28;1582;-77
2022/11/24 00:14:25;;;;;;;;;;;;;;;8.21;100.00;98568.56;348359;28;1165;-77
2022/11/24 00:14:35;;;;;;;;;;;;;;;8.21;100.00;98568.56;343948;28;1264;-77
2022/11/24 00:14:45;;;;;;;;;;;;;;;8.20;100.00;98566.88;345171;28;1181;-77
2022/11/24 00:14:56;;;;;;;;;;;;;;;8.21;100.00;98565.97;349273;28;872;-77
2022/11/24 00:15:06;;;;;;;;;;;;;;;8.20;100.00;98574.69;348972;28;865;-76
2022/11/24 00:15:16;;;;;;;;;;;;;;;8.20;100.00;98569.50;346819;28;3725;-77
2022/11/24 00:15:26;;;;;;;;;;;;;;;8.19;100.00;98575.63;347482;28;3299;-77
2022/11/24 00:15:37;;;;;;;;;;;;;;;8.18;100.00;98563.50;347907;28;1159;-77
2022/11/24 00:15:47;;;;;;;;;;;;;;;8.20;100.00;98572.09;346236;28;1888;-77
2022/11/24 00:16:23;;;;;;;;;;;;;;;8.19;100.00;98570.41;343507;28;3134;-77
2022/11/24 00:16:34;;;;;;;;;;;;;;;8.21;100.00;98579.00;343241;28;1024;-77
2022/11/24 00:16:45;;;;;;;;;;;;;;;8.20;100.00;98566.88;341976;28;1227;-77
2022/11/24 00:16:55;;;;;;;;;;;;;;;8.21;100.00;98570.34;339627;29;1198;-77
2022/11/24 00:17:05;;;;;;;;;;;;;;;8.21;100.00;98573.78;340258;29;1371;-77
2022/11/24 00:17:15;;;;;;;;;;;;;;;8.21;100.00;98573.78;342362;28;1273;-76
2022/11/24 00:17:28;;;;;;;;;;;;;;;8.21;100.00;98573.78;342550;28;1309;-76
2022/11/24 00:17:39;;;;;;;;;;;;;;;8.22;100.00;98570.25;340135;29;1148;-77
2022/11/24 00:17:49;;;;;;;;;;;;;;;8.21;100.00;98573.78;338984;29;1978;-77
2022/11/24 00:18:00;;;;;;;;;;;;;;;8.20;100.00;98571.25;336273;29;1616;-77
2022/11/24 00:18:10;;;;;;;;;;;;;;;8.21;100.00;98572.94;338764;29;1683;-77
2022/11/24 00:18:20;;;;;;;;;;;;;;;8.18;100.00;98573.94;341735;28;1216;-77
2022/11/24 00:18:30;;;;;;;;;;;;;;;8.14;100.00;98569.78;340890;28;1313;-77
2022/11/24 00:18:41;;;;;;;;;;;;;;;8.13;100.00;98573.31;338419;29;1306;-77
2022/11/24 00:18:52;;;;;;;;;;;;;;;8.13;100.00;98569.84;341062;28;1422;-77
2022/11/24 00:19:04;;;;;;;;;;;;;;;8.10;100.00;98568.25;342037;28;1857;-77
2022/11/24 00:19:14;;;;;;;;;;;;;;;8.08;100.00;98570.06;341525;28;1899;-77
2022/11/24 00:19:24;;;;;;;;;;;;;;;8.09;100.00;98576.97;341215;29;806;-77
2022/11/24 00:19:35;;;;;;;;;;;;;;;8.09;100.00;98569.16;336013;29;1873;-77
2022/11/24 00:19:45;;;;;;;;;;;;;;;8.09;100.00;98568.31;336510;29;1922;-77
2022/11/24 00:19:55;;;;;;;;;;;;;;;8.09;100.00;98573.53;339755;29;1297;-77
2022/11/24 00:20:06;;;;;;;;;;;;;;;8.08;100.00;98577.03;339339;29;1522;-77
2022/11/24 00:20:16;;;;;;;;;;;;;;;8.07;100.00;98570.16;338162;29;1347;-77
2022/11/24 00:20:26;;;;;;;;;;;;;;;8.07;100.00;98573.59;338779;29;918;-77
2022/11/24 00:20:36;;;;;;;;;;;;;;;8.07;100.00;98571.00;340783;29;1389;-77
2022/11/24 00:20:52;;;;;;;;;;;;;;;8.08;100.00;98572.69;340633;29;1880;-77
2022/11/24 00:21:02;;;;;;;;;;;;;;;8.09;100.00;98569.16;338072;29;1878;-75
2022/11/24 00:21:13;;;;;;;;;;;;;;;8.09;100.00;98576.97;336723;29;2419;-77
2022/11/24 00:21:24;;;;;;;;;;;;;;;8.09;100.00;98573.53;338495;29;900;-77
2022/11/24 00:21:34;;;;;;;;;;;;;;;8.08;100.00;98570.06;333241;29;2911;-76
2022/11/24 00:21:44;;;;;;;;;;;;;;;8.08;100.00;98572.69;329242;29;2432;-76
2022/11/24 00:21:55;;;;;;;;;;;;;;;8.10;100.00;98576.06;329529;30;1192;-77
2022/11/24 00:22:05;;;;;;;;;;;;;;;8.09;100.00;98576.13;329981;29;2456;-77
2022/11/24 00:22:15;;;;;;;;;;;;;;;8.10;100.00;98572.59;329992;29;1773;-76
2022/11/24 00:22:25;;;;;;;;;;;;;;;8.10;100.00;98570.84;332024;29;1294;-76
2022/11/24 00:22:36;;;;;;;;;;;;;;;8.10;100.00;98570.84;331840;29;1299;-77
2022/11/24 00:22:46;;;;;;;;;;;;;;;8.10;100.00;98575.22;329704;29;1684;-77
2022/11/24 00:22:56;;;;;;;;;;;;;;;8.09;100.00;98576.13;326975;30;1578;-76
2022/11/24 00:23:06;;;;;;;;;;;;;;;8.07;100.00;98573.59;327878;30;2101;-76
2022/11/24 00:23:17;;;;;;;;;;;;;;;8.06;100.00;98577.13;323469;30;2950;-76
2022/11/24 00:23:27;;;;;;;;;;;;;;;8.05;100.00;98578.03;321703;30;1070;-78
2022/11/24 00:23:37;;;;;;;;;;;;;;;8.05;100.00;98578.03;326053;30;2931;-77
2022/11/24 00:23:48;;;;;;;;;;;;;;;8.05;100.00;98575.44;324625;30;3353;-76
2022/11/24 00:23:58;;;;;;;;;;;;;;;8.05;100.00;98577.19;320403;30;3216;-77
2022/11/24 00:24:08;;;;;;;;;;;;;;;8.04;100.00;98576.34;317752;31;893;-77
2022/11/24 00:24:18;;;;;;;;;;;;;;;8.04;100.00;98572.91;321088;30;3582;-76
2022/11/24 00:24:28;;;;;;;;;;;;;;;8.05;100.00;98577.19;318465;30;3930;-77
2022/11/24 00:24:39;;;;;;;;;;;;;;;8.04;100.00;98576.34;316803;31;3805;-77
2022/11/24 00:24:49;;;;;;;;;;;;;;;8.04;100.00;98571.13;316252;31;2062;-77
2022/11/24 00:24:59;;;;;;;;;;;;;;;8.04;100.00;98573.75;314209;31;2992;-77
2022/11/24 00:25:09;;;;;;;;;;;;;;;8.03;100.00;98572.03;312901;31;3699;-77
2022/11/24 00:25:20;;;;;;;;;;;;;;;8.04;100.00;98576.34;309953;31;3132;-76
2022/11/24 00:25:30;;;;;;;;;;;;;;;8.03;100.00;98577.25;308944;31;3839;-77
2022/11/24 00:25:40;;;;;;;;;;;;;;;8.03;100.00;98572.03;308954;32;1339;-77
2022/11/24 00:25:50;;;;;;;;;;;;;;;8.03;100.00;98574.66;307175;32;4921;-76
2022/11/24 00:26:03;;;;;;;;;;;;;;;8.03;100.00;98579.88;304059;32;5056;-76
2022/11/24 00:26:14;;;;;;;;;;;;;;;8.02;100.00;98576.41;302051;32;5354;-76
2022/11/24 00:26:28;;;;;;;;;;;;;;;8.02;100.00;98567.75;303456;32;1253;-76
2022/11/24 00:26:38;;;;;;;;;;;;;;;8.01;100.00;98579.09;298458;33;807;-76
2022/11/24 00:26:49;;;;;;;;;;;;;;;8.02;100.00;98578.19;297009;33;3368;-76
2022/11/24 00:26:59;;;;;;;;;;;;;;;7.99;100.00;98573.94;295369;33;3087;-75
2022/11/24 00:27:09;;;;;;;;;;;;;;;7.99;100.00;98571.34;295369;33;980;-75
2022/11/24 00:27:19;;;;;;;;;;;;;;;7.99;100.00;98580.94;297575;32;3757;-75
2022/11/24 00:27:29;;;;;;;;;;;;;;;7.97;100.00;98569.72;295899;33;4930;-76
2022/11/24 00:27:40;;;;;;;;;;;;;;;7.97;100.00;98577.53;293329;33;1394;-76
2022/11/24 00:27:51;;;;;;;;;;;;;;;7.97;100.00;98572.34;291204;33;6077;-76
2022/11/24 00:28:01;;;;;;;;;;;;;;;7.99;100.00;98578.31;287956;33;6604;-76
2022/11/24 00:28:11;;;;;;;;;;;;;;;7.98;100.00;98567.06;291262;34;978;-76
2022/11/24 00:28:21;;;;;;;;;;;;;;;8.00;100.00;98574.78;293007;33;7596;-76
2022/11/24 00:28:32;;;;;;;;;;;;;;;7.99;100.00;98570.50;289616;33;6974;-76
2022/11/24 00:28:42;;;;;;;;;;;;;;;7.98;100.00;98579.22;286693;34;1364;-76
2022/11/24 00:28:56;;;;;;;;;;;;;;;7.98;100.00;98576.63;285970;34;3128;-75
2022/11/24 00:29:08;;;;;;;;;;;;;;;7.99;100.00;98578.31;283426;34;4839;-76
2022/11/24 00:29:18;;;;;;;;;;;;;;;7.98;100.00;98572.25;283636;34;5866;-76
2022/11/24 00:29:29;;;;;;;;;;;;;;;7.98;100.00;98574.88;283306;34;6068;-76
2022/11/24 00:29:39;;;;;;;;;;;;;;;7.99;100.00;98562.69;286731;34;1106;-76
2022/11/24 00:29:49;;;;;;;;;;;;;;;7.98;100.00;98564.44;284166;34;7104;-76
2022/11/24 00:29:59;;;;;;;;;;;;;;;8.00;100.00;98572.19;282546;34;8552;-76
2022/11/24 00:30:10;;;;;;;;;;;;;;;7.98;100.00;98574.88;282874;34;1373;-75
2022/11/24 00:30:20;;;;;;;;;;;;;;;8.00;100.00;98580.00;284233;34;9085;-77
2022/11/24 00:30:32;;;;;;;;;;;;;;;7.99;100.00;98573.09;283338;34;9140;-76
2022/11/24 00:30:42;;;;;;;;;;;;;;;8.00;100.00;98577.41;284011;34;890;-76
2022/11/24 00:32:51;;;;;;;;;;;;;;;7.97;100.00;98569.72;2503724;27;19936;-76
2022/11/24 00:33:01;;;;;;;;;;;;;;;7.97;100.00;98572.34;355484;27;1469;-76
2022/11/24 00:33:11;;;;;;;;;;;;;;;7.96;100.00;98570.66;352778;28;1181;-76
2022/11/24 00:33:22;;;;;;;;;;;;;;;7.95;100.00;98571.56;352085;28;938;-77
2022/11/24 00:33:32;;;;;;;;;;;;;;;7.95;100.00;98568.97;349598;28;1199;-77
2022/11/24 00:33:42;;;;;;;;;;;;;;;7.95;100.00;98566.34;349069;28;5859;-78
2022/11/24 00:33:53;;;;;;;;;;;;;;;7.94;100.00;98565.50;350268;28;3704;-77
2022/11/24 00:34:04;;;;;;;;;;;;;;;7.94;100.00;98564.66;352002;28;1907;-78
2022/11/24 00:34:15;;;;;;;;;;;;;;;7.95;100.00;98568.97;350269;28;3617;-77
2022/11/24 00:34:25;;;;;;;;;;;;;;;7.95;100.00;98571.56;347036;28;1249;-76
2022/11/24 00:34:35;;;;;;;;;;;;;;;7.95;100.00;98572.41;348322;28;1430;-75
2022/11/24 00:34:45;;;;;;;;;;;;;;;7.95;100.00;98572.41;347819;28;1218;-75
2022/11/24 00:34:56;;;;;;;;;;;;;;;7.96;100.00;98562.84;347765;28;1303;-76
2022/11/24 00:35:06;;;;;;;;;;;;;;;7.96;100.00;98568.03;348181;28;1321;-76
2022/11/24 00:35:16;;;;;;;;;;;;;;;7.96;100.00;98570.66;348918;28;875;-76
2022/11/24 00:35:27;;;;;;;;;;;;;;;7.95;100.00;98568.97;347741;28;1325;-76
2022/11/24 00:35:37;;;;;;;;;;;;;;;7.95;100.00;98569.81;349160;28;888;-76
2022/11/24 00:35:53;;;;;;;;;;;;;;;7.95;100.00;98566.34;348996;28;1234;-76
2022/11/24 00:36:03;;;;;;;;;;;;;;;7.95;100.00;98566.34;350686;28;884;-76
2022/11/24 00:36:13;;;;;;;;;;;;;;;7.95;100.00;98572.41;350721;28;1356;-75
2022/11/24 00:36:24;;;;;;;;;;;;;;;7.94;100.00;98568.13;352022;28;871;-76
2022/11/24 00:36:35;;;;;;;;;;;;;;;7.94;100.00;98570.72;350646;28;1214;-76
2022/11/24 00:36:45;;;;;;;;;;;;;;;7.93;100.00;98560.38;349446;28;1116;-77
2022/11/24 00:36:55;;;;;;;;;;;;;;;7.94;100.00;98567.25;346888;28;1295;-77
2022/11/24 00:37:05;;;;;;;;;;;;;;;7.93;100.00;98565.56;350616;28;1361;-75
2022/11/24 00:37:17;;;;;;;;;;;;;;;7.92;100.00;98569.09;350532;28;1323;-75
2022/11/24 00:37:27;;;;;;;;;;;;;;;7.91;100.00;98565.66;347845;28;1014;-75
2022/11/24 00:37:37;;;;;;;;;;;;;;;7.92;100.00;98563.88;345163;28;940;-75
2022/11/24 00:37:47;;;;;;;;;;;;;;;7.93;100.00;98568.19;347917;28;887;-76
2022/11/24 00:37:57;;;;;;;;;;;;;;;7.94;100.00;98569.88;348743;28;1606;-74
2022/11/24 00:38:08;;;;;;;;;;;;;;;7.94;100.00;98564.66;348083;28;1197;-75
2022/11/24 00:38:18;;;;;;;;;;;;;;;7.94;100.00;98569.88;349139;28;1332;-75
2022/11/24 00:38:28;;;;;;;;;;;;;;;7.93;100.00;98569.03;349799;28;784;-75
2022/11/24 00:38:38;;;;;;;;;;;;;;;7.95;100.00;98571.56;349116;28;1241;-76
2022/11/24 00:38:55;;;;;;;;;;;;;;;7.95;100.00;98572.41;349302;28;1337;-75
2022/11/24 00:39:06;;;;;;;;;;;;;;;7.95;100.00;98568.97;344953;28;1610;-76
2022/11/24 00:39:16;;;;;;;;;;;;;;;7.95;100.00;98572.41;344794;28;1059;-76
2022/11/24 00:39:27;;;;;;;;;;;;;;;7.94;100.00;98564.66;345565;28;1115;-76
2022/11/24 00:39:37;;;;;;;;;;;;;;;7.94;100.00;98570.72;346360;28;1384;-76
2022/11/24 00:39:47;;;;;;;;;;;;;;;7.95;100.00;98571.56;345078;28;1196;-76
2022/11/24 00:39:57;;;;;;;;;;;;;;;7.95;100.00;98568.97;346551;28;777;-76
2022/11/24 00:40:08;;;;;;;;;;;;;;;7.94;100.00;98569.88;344619;28;1301;-76
2022/11/24 00:40:18;;;;;;;;;;;;;;;7.94;100.00;98562.06;347717;28;1135;-76
2022/11/24 00:40:28;;;;;;;;;;;;;;;7.94;100.00;98567.25;344973;28;1231;-76
2022/11/24 00:40:38;;;;;;;;;;;;;;;7.94;100.00;98567.25;343667;28;1264;-76
2022/11/24 00:40:49;;;;;;;;;;;;;;;7.92;100.00;98561.28;341168;29;868;-76
2022/11/24 00:40:59;;;;;;;;;;;;;;;7.92;100.00;98561.28;338880;28;1344;-76
2022/11/24 00:41:10;;;;;;;;;;;;;;;7.91;100.00;98567.41;338643;28;1237;-76
2022/11/24 00:41:20;;;;;;;;;;;;;;;7.92;100.00;98571.69;344775;28;1417;-76
2022/11/24 00:41:30;;;;;;;;;;;;;;;7.92;100.00;98566.50;343434;28;1488;-76
2022/11/24 00:41:41;;;;;;;;;;;;;;;7.93;100.00;98561.22;343448;28;1914;-76
2022/11/24 00:41:51;;;;;;;;;;;;;;;7.92;100.00;98561.28;343625;28;1179;-76
2022/11/24 00:42:02;;;;;;;;;;;;;;;7.92;100.00;98559.53;342395;28;1206;-76
2022/11/24 00:42:16;;;;;;;;;;;;;;;7.93;100.00;98568.19;341608;28;936;-77
2022/11/24 00:42:26;;;;;;;;;;;;;;;7.91;100.00;98560.44;344040;28;1039;-77
2022/11/24 00:42:36;;;;;;;;;;;;;;;7.93;100.00;98562.97;342416;28;1234;-77
2022/11/24 00:42:46;;;;;;;;;;;;;;;7.93;100.00;98560.38;341911;28;4223;-75
2022/11/24 00:42:57;;;;;;;;;;;;;;;7.93;100.00;98563.81;338340;28;5397;-76
2022/11/24 00:43:07;;;;;;;;;;;;;;;7.94;100.00;98564.66;339041;29;1669;-76
2022/11/24 00:43:17;;;;;;;;;;;;;;;7.94;100.00;98565.50;341459;28;1900;-77
2022/11/24 00:43:27;;;;;;;;;;;;;;;7.94;100.00;98569.88;337388;29;3581;-77
2022/11/24 00:43:38;;;;;;;;;;;;;;;7.93;100.00;98563.81;334311;29;874;-77
2022/11/24 00:43:48;;;;;;;;;;;;;;;7.93;100.00;98560.38;336769;29;2199;-76
2022/11/24 00:43:58;;;;;;;;;;;;;;;7.93;100.00;98565.56;336037;29;1731;-77
2022/11/24 00:44:09;;;;;;;;;;;;;;;7.92;100.00;98564.72;335960;29;1315;-77
2022/11/24 00:44:19;;;;;;;;;;;;;;;7.90;100.00;98563.13;334747;29;850;-76
2022/11/24 00:44:29;;;;;;;;;;;;;;;7.88;100.00;98573.59;333097;29;1643;-76
2022/11/24 00:44:39;;;;;;;;;;;;;;;7.89;100.00;98569.25;329172;29;1467;-76
2022/11/24 00:44:50;;;;;;;;;;;;;;;7.88;100.00;98565.78;327519;30;1320;-76
2022/11/24 00:45:00;;;;;;;;;;;;;;;7.88;100.00;98564.94;333430;29;1943;-77
2022/11/24 00:45:10;;;;;;;;;;;;;;;7.87;100.00;98565.88;332892;29;2262;-76
2022/11/24 00:45:20;;;;;;;;;;;;;;;7.85;100.00;98565.94;329555;30;1624;-77
2022/11/24 00:45:30;;;;;;;;;;;;;;;7.86;100.00;98569.38;329837;29;2305;-77
2022/11/24 00:45:41;;;;;;;;;;;;;;;7.85;100.00;98563.31;328372;29;2457;-76
2022/11/24 00:45:51;;;;;;;;;;;;;;;7.87;100.00;98568.47;329691;30;776;-76
2022/11/24 00:46:01;;;;;;;;;;;;;;;7.87;100.00;98568.47;331414;29;2575;-76
2022/11/24 00:46:12;;;;;;;;;;;;;;;7.87;100.00;98573.69;330527;29;1909;-76
2022/11/24 00:46:22;;;;;;;;;;;;;;;7.86;100.00;98566.78;330923;29;784;-76
2022/11/24 00:46:32;;;;;;;;;;;;;;;7.86;100.00;98570.22;330492;29;1277;-76
2022/11/24 00:46:42;;;;;;;;;;;;;;;7.84;100.00;98568.59;330245;29;2052;-76
2022/11/24 00:46:53;;;;;;;;;;;;;;;7.83;100.00;98567.75;329677;30;1197;-76
2022/11/24 00:47:03;;;;;;;;;;;;;;;7.83;100.00;98569.53;331266;29;2235;-77
2022/11/24 00:47:13;;;;;;;;;;;;;;;7.82;100.00;98575.66;330698;29;2937;-77
2022/11/24 00:47:23;;;;;;;;;;;;;;;7.80;100.00;98565.28;328356;30;1412;-77
2022/11/24 00:47:34;;;;;;;;;;;;;;;7.80;100.00;98572.31;323490;30;1366;-77
2022/11/24 00:47:44;;;;;;;;;;;;;;;7.79;100.00;98565.41;326654;30;3189;-77
2022/11/24 00:47:54;;;;;;;;;;;;;;;7.78;100.00;98568.91;327494;30;3238;-77
2022/11/24 00:48:04;;;;;;;;;;;;;;;7.79;100.00;98565.41;325218;30;880;-77
2022/11/24 00:48:15;;;;;;;;;;;;;;;7.79;100.00;98570.63;323223;30;3014;-76
2022/11/24 00:48:25;;;;;;;;;;;;;;;7.78;100.00;98568.91;323416;30;2444;-76
2022/11/24 00:48:35;;;;;;;;;;;;;;;7.79;100.00;98570.63;323611;30;801;-76
2022/11/24 00:48:48;;;;;;;;;;;;;;;7.79;100.00;98575.81;322892;30;2348;-77
2022/11/24 00:49:01;;;;;;;;;;;;;;;7.80;100.00;98573.13;322391;30;2938;-76
2022/11/24 00:49:11;;;;;;;;;;;;;;;7.81;100.00;98573.97;319066;30;3306;-76
2022/11/24 00:49:21;;;;;;;;;;;;;;;7.81;100.00;98572.19;316701;31;1377;-76
2022/11/24 00:49:31;;;;;;;;;;;;;;;7.81;100.00;98573.97;315499;30;4589;-76
2022/11/24 00:49:42;;;;;;;;;;;;;;;7.83;100.00;98577.34;315967;30;4866;-76
2022/11/24 00:49:52;;;;;;;;;;;;;;;7.82;100.00;98566.06;318460;31;1270;-76
2022/11/24 00:50:03;;;;;;;;;;;;;;;7.82;100.00;98570.44;312409;31;4290;-76
2022/11/24 00:50:13;;;;;;;;;;;;;;;7.82;100.00;98573.88;311249;31;4315;-76
2022/11/24 00:50:23;;;;;;;;;;;;;;;7.82;100.00;98575.66;309895;31;1236;-76
2022/11/24 00:50:34;;;;;;;;;;;;;;;7.82;100.00;98573.88;311593;31;4410;-76
2022/11/24 00:50:44;;;;;;;;;;;;;;;7.81;100.00;98573.97;310041;31;3014;-76
2022/11/24 00:50:58;;;;;;;;;;;;;;;7.81;100.00;98574.81;309991;31;3492;-76
2022/11/24 00:51:09;;;;;;;;;;;;;;;7.80;100.00;98577.50;309034;31;1291;-76
2022/11/24 00:51:20;;;;;;;;;;;;;;;7.79;100.00;98576.66;306688;32;1331;-76
2022/11/24 00:51:30;;;;;;;;;;;;;;;7.79;100.00;98575.81;304675;32;5176;-75
2022/11/24 00:51:40;;;;;;;;;;;;;;;7.79;100.00;98581.88;303219;32;6708;-77
2022/11/24 00:51:51;;;;;;;;;;;;;;;7.79;100.00;98576.66;305675;32;868;-76
2022/11/24 00:52:01;;;;;;;;;;;;;;;7.78;100.00;98574.13;300698;32;7072;-75
2022/11/24 00:52:11;;;;;;;;;;;;;;;7.76;100.00;98573.34;300603;32;6653;-76
2022/11/24 00:52:21;;;;;;;;;;;;;;;7.73;100.00;98576.09;298205;33;1369;-76
2022/11/24 00:52:32;;;;;;;;;;;;;;;7.74;100.00;98577.78;293616;33;6347;-75
2022/11/24 00:52:42;;;;;;;;;;;;;;;7.74;100.00;98572.59;294874;33;5640;-77
2022/11/24 00:52:52;;;;;;;;;;;;;;;7.74;100.00;98567.38;295401;33;979;-76
2022/11/24 00:53:02;;;;;;;;;;;;;;;7.74;100.00;98577.78;294794;33;4958;-76
2022/11/24 00:53:12;;;;;;;;;;;;;;;7.72;100.00;98577.00;291575;33;5584;-77
2022/11/24 00:53:23;;;;;;;;;;;;;;;7.71;100.00;98575.31;289455;34;1325;-77
2022/11/24 00:53:33;;;;;;;;;;;;;;;7.71;100.00;98577.94;285293;34;7015;-76
2022/11/24 00:53:44;;;;;;;;;;;;;;;7.70;100.00;98576.25;283611;34;9036;-76
2022/11/24 00:53:55;;;;;;;;;;;;;;;7.70;100.00;98577.09;282090;34;8637;-76
2022/11/24 00:54:05;;;;;;;;;;;;;;;7.70;100.00;98579.69;280269;35;1268;-77
2022/11/24 00:56:17;;;;;;;;;;;;;;;7.68;100.00;98577.16;2496949;27;19937;-76
2022/11/24 00:56:27;;;;;;;;;;;;;;;7.68;100.00;98574.56;353295;28;1372;-76
2022/11/24 00:56:37;;;;;;;;;;;;;;;7.68;100.00;98574.56;351811;28;1455;-75
2022/11/24 00:56:48;;;;;;;;;;;;;;;7.68;100.00;98574.56;350642;28;1559;-75
2022/11/24 00:56:58;;;;;;;;;;;;;;;7.70;100.00;98573.63;350633;28;1314;-76
2022/11/24 00:57:08;;;;;;;;;;;;;;;7.70;100.00;98576.25;351930;28;1153;-76
2022/11/24 00:57:18;;;;;;;;;;;;;;;7.68;100.00;98571.94;350805;28;867;-76
2022/11/24 00:57:28;;;;;;;;;;;;;;;7.67;100.00;98578.06;352209;28;844;-76
2022/11/24 00:57:39;;;;;;;;;;;;;;;7.66;100.00;98573.78;348800;28;1382;-76
2022/11/24 00:57:50;;;;;;;;;;;;;;;7.67;100.00;98572.00;349309;28;887;-76
2022/11/24 00:58:01;;;;;;;;;;;;;;;7.66;100.00;98571.16;348967;28;1645;-76
2022/11/24 00:58:11;;;;;;;;;;;;;;;7.65;100.00;98577.28;350253;28;1361;-75
2022/11/24 00:58:21;;;;;;;;;;;;;;;7.67;100.00;98574.63;349259;28;1206;-75
2022/11/24 00:58:32;;;;;;;;;;;;;;;7.66;100.00;98575.53;351750;28;864;-75
2022/11/24 00:58:42;;;;;;;;;;;;;;;7.65;100.00;98573.84;351967;28;1156;-75
2022/11/24 00:58:52;;;;;;;;;;;;;;;7.66;100.00;98575.53;349066;28;1236;-76
2022/11/24 00:59:04;;;;;;;;;;;;;;;7.65;100.00;98573.84;349096;28;1433;-76
2022/11/24 00:59:14;;;;;;;;;;;;;;;7.64;100.00;98566.94;349320;28;920;-76
2022/11/24 00:59:24;;;;;;;;;;;;;;;7.65;100.00;98571.25;348746;28;1239;-76
2022/11/24 00:59:35;;;;;;;;;;;;;;;7.65;100.00;98572.09;347844;28;1314;-76
2022/11/24 00:59:45;;;;;;;;;;;;;;;7.65;100.00;98579.91;349280;28;872;-76
2022/11/24 00:59:55;;;;;;;;;;;;;;;7.66;100.00;98572.94;349057;28;883;-76
2022/11/24 01:00:06;;;;;;;;;;;;;;;7.65;100.00;98569.47;352817;28;1328;-76
2022/11/24 01:00:16;;;;;;;;;;;;;;;7.66;100.00;98575.53;350170;28;1453;-75
2022/11/24 01:00:26;;;;;;;;;;;;;;;7.66;100.00;98578.97;346611;28;1317;-75
2022/11/24 01:00:37;;;;;;;;;;;;;;;7.66;100.00;98576.38;348199;28;1211;-75
2022/11/24 01:00:47;;;;;;;;;;;;;;;7.67;100.00;98572.84;350347;28;1391;-76
2022/11/24 01:01:10;;;;;;;;;;;;;;;7.67;100.00;98578.06;350021;28;1369;-76
2022/11/24 01:01:24;;;;;;;;;;;;;;;7.66;100.00;98576.38;350442;28;5852;-75
2022/11/24 01:01:36;;;;;;;;;;;;;;;7.68;100.00;98577.16;351958;28;1403;-77
2022/11/24 01:01:46;;;;;;;;;;;;;;;7.70;100.00;98581.44;350253;28;1988;-76
2022/11/24 01:01:56;;;;;;;;;;;;;;;7.70;100.00;98577.09;348185;28;3793;-76
2022/11/24 01:02:06;;;;;;;;;;;;;;;7.70;100.00;98576.25;346139;28;1109;-77
2022/11/24 01:02:17;;;;;;;;;;;;;;;7.70;100.00;98571.03;346456;28;1342;-74
2022/11/24 01:02:27;;;;;;;;;;;;;;;7.71;100.00;98580.53;342866;28;903;-74
2022/11/24 01:02:37;;;;;;;;;;;;;;;7.71;100.00;98580.53;344000;28;1665;-75
2022/11/24 01:02:47;;;;;;;;;;;;;;;7.69;100.00;98575.41;343918;28;885;-77
2022/11/24 01:02:58;;;;;;;;;;;;;;;7.68;100.00;98574.56;343781;28;1324;-77